sensor_id;sensor_type;location;lat;lon;timestamp;temperature;humidity
2435;DHT22;1228;51.022;6.764;2022-12-07T00:01:16;4.80;99.90
2435;DHT22;1228;51.022;6.764;2022-12-07T00:03:43;4.80;99.90
2435;DHT22;1228;51.022;6.764;2022-12-07T00:06:12;4.80;99.90
2435;DHT22;1228;51.022;6.764;2022-12-07T00:08:38;4.80;99.90
2435;DHT22;1228;51.022;6.764;2022-12-07T00:11:16;4.70;99.90
2435;DHT22;1228;51.022;6.764;2022-12-07T00:13:43;4.70;99.90
2435;DHT22;1228;51.022;6.764;2022-12-07T00:16:14;4.70;99.90
2435;DHT22;1228;51.022;6.764;2022-12-07T00:18:40;4.70;99.90
2435;DHT22;1228;51.022;6.764;2022-12-07T00:24:05;4.60;99.90
2435;DHT22;1228;51.022;6.764;2022-12-07T00:26:33;4.60;99.90
2435;DHT22;1228;51.022;6.764;2022-12-07T00:29:05;4.60;99.90
2435;DHT22;1228;51.022;6.764;2022-12-07T00:31:33;4.60;99.90
2435;DHT22;1228;51.022;6.764;2022-12-07T00:34:01;4.60;99.90
2435;DHT22;1228;51.022;6.764;2022-12-07T00:36:27;4.70;99.90
2435;DHT22;1228;51.022;6.764;2022-12-07T00:38:53;4.70;99.90
2435;DHT22;1228;51.022;6.764;2022-12-07T00:41:24;4.70;99.90
2435;DHT22;1228;51.022;6.764;2022-12-07T00:43:50;4.80;99.90
2435;DHT22;1228;51.022;6.764;2022-12-07T00:46:17;4.70;99.90
2435;DHT22;1228;51.022;6.764;2022-12-07T00:48:43;4.80;99.90
2435;DHT22;1228;51.022;6.764;2022-12-07T00:51:11;4.70;99.90
2435;DHT22;1228;51.022;6.764;2022-12-07T00:53:37;4.70;99.90
2435;DHT22;1228;51.022;6.764;2022-12-07T00:56:12;4.70;99.90
2435;DHT22;1228;51.022;6.764;2022-12-07T00:58:38;4.70;99.90
2435;DHT22;1228;51.022;6.764;2022-12-07T01:01:05;4.70;99.90
2435;DHT22;1228;51.022;6.764;2022-12-07T01:03:31;4.70;99.90
2435;DHT22;1228;51.022;6.764;2022-12-07T01:05:58;4.70;99.90
2435;DHT22;1228;51.022;6.764;2022-12-07T01:08:25;4.70;99.90
2435;DHT22;1228;51.022;6.764;2022-12-07T01:11:19;4.80;99.90
2435;DHT22;1228;51.022;6.764;2022-12-07T01:13:45;4.80;99.90
2435;DHT22;1228;51.022;6.764;2022-12-07T01:16:14;4.80;99.90
2435;DHT22;1228;51.022;6.764;2022-12-07T01:18:40;4.80;99.90
2435;DHT22;1228;51.022;6.764;2022-12-07T01:23:35;4.90;99.90
2435;DHT22;1228;51.022;6.764;2022-12-07T01:26:04;4.90;99.90
2435;DHT22;1228;51.022;6.764;2022-12-07T01:28:30;4.90;99.90
2435;DHT22;1228;51.022;6.764;2022-12-07T01:31:06;4.90;99.90
2435;DHT22;1228;51.022;6.764;2022-12-07T01:33:35;4.90;99.90
2435;DHT22;1228;51.022;6.764;2022-12-07T01:36:22;5.00;99.90
2435;DHT22;1228;51.022;6.764;2022-12-07T01:38:50;5.00;99.90
2435;DHT22;1228;51.022;6.764;2022-12-07T01:41:19;5.00;99.90
2435;DHT22;1228;51.022;6.764;2022-12-07T01:44:21;5.00;99.90
2435;DHT22;1228;51.022;6.764;2022-12-07T01:49:45;5.00;99.90
2435;DHT22;1228;51.022;6.764;2022-12-07T01:52:30;4.90;99.90
2435;DHT22;1228;51.022;6.764;2022-12-07T01:55:00;4.90;99.90
2435;DHT22;1228;51.022;6.764;2022-12-07T01:57:27;4.90;99.90
2435;DHT22;1228;51.022;6.764;2022-12-07T01:59:55;4.90;99.90
2435;DHT22;1228;51.022;6.764;2022-12-07T02:02:33;4.90;99.90
2435;DHT22;1228;51.022;6.764;2022-12-07T02:05:01;4.90;99.90
2435;DHT22;1228;51.022;6.764;2022-12-07T02:07:27;4.90;99.90
2435;DHT22;1228;51.022;6.764;2022-12-07T02:09:54;4.90;99.90
2435;DHT22;1228;51.022;6.764;2022-12-07T02:12:20;4.90;99.90
2435;DHT22;1228;51.022;6.764;2022-12-07T02:14:46;4.90;99.90
2435;DHT22;1228;51.022;6.764;2022-12-07T02:17:25;4.90;99.90
2435;DHT22;1228;51.022;6.764;2022-12-07T02:25:30;4.90;99.90
2435;DHT22;1228;51.022;6.764;2022-12-07T02:31:17;4.90;99.90
2435;DHT22;1228;51.022;6.764;2022-12-07T02:33:54;4.90;99.90
2435;DHT22;1228;51.022;6.764;2022-12-07T02:36:25;4.90;99.90
2435;DHT22;1228;51.022;6.764;2022-12-07T02:41:32;4.90;99.90
2435;DHT22;1228;51.022;6.764;2022-12-07T02:44:02;4.90;99.90
2435;DHT22;1228;51.022;6.764;2022-12-07T02:46:37;4.80;99.90
2435;DHT22;1228;51.022;6.764;2022-12-07T02:49:04;4.80;99.90
2435;DHT22;1228;51.022;6.764;2022-12-07T02:51:31;4.80;99.90
2435;DHT22;1228;51.022;6.764;2022-12-07T02:53:58;4.80;99.90
2435;DHT22;1228;51.022;6.764;2022-12-07T03:08:07;4.80;99.90
2435;DHT22;1228;51.022;6.764;2022-12-07T03:11:01;4.80;99.90
2435;DHT22;1228;51.022;6.764;2022-12-07T03:13:37;4.80;99.90
2435;DHT22;1228;51.022;6.764;2022-12-07T03:19:02;4.80;99.90
2435;DHT22;1228;51.022;6.764;2022-12-07T03:21:44;4.80;99.90
2435;DHT22;1228;51.022;6.764;2022-12-07T03:24:14;4.80;99.90
2435;DHT22;1228;51.022;6.764;2022-12-07T03:26:53;4.80;99.90
2435;DHT22;1228;51.022;6.764;2022-12-07T03:29:31;4.80;99.90
2435;DHT22;1228;51.022;6.764;2022-12-07T03:32:06;4.80;99.90
2435;DHT22;1228;51.022;6.764;2022-12-07T03:34:57;4.80;99.90
2435;DHT22;1228;51.022;6.764;2022-12-07T03:37:34;4.80;99.90
2435;DHT22;1228;51.022;6.764;2022-12-07T03:42:37;4.80;99.90
2435;DHT22;1228;51.022;6.764;2022-12-07T03:45:03;4.80;99.90
2435;DHT22;1228;51.022;6.764;2022-12-07T03:53:37;4.80;99.90
2435;DHT22;1228;51.022;6.764;2022-12-07T03:56:05;4.80;99.90
2435;DHT22;1228;51.022;6.764;2022-12-07T03:58:32;4.70;99.90
2435;DHT22;1228;51.022;6.764;2022-12-07T04:00:58;4.70;99.90
2435;DHT22;1228;51.022;6.764;2022-12-07T04:03:24;4.70;99.90
2435;DHT22;1228;51.022;6.764;2022-12-07T04:05:49;4.70;99.90
2435;DHT22;1228;51.022;6.764;2022-12-07T04:08:15;4.70;99.90
2435;DHT22;1228;51.022;6.764;2022-12-07T04:10:40;4.70;99.90
2435;DHT22;1228;51.022;6.764;2022-12-07T04:13:06;4.70;99.90
2435;DHT22;1228;51.022;6.764;2022-12-07T04:15:32;4.70;99.90
2435;DHT22;1228;51.022;6.764;2022-12-07T04:17:57;4.60;99.90
2435;DHT22;1228;51.022;6.764;2022-12-07T04:20:23;4.60;99.90
2435;DHT22;1228;51.022;6.764;2022-12-07T04:22:49;4.60;99.90
2435;DHT22;1228;51.022;6.764;2022-12-07T04:25:14;4.60;99.90
2435;DHT22;1228;51.022;6.764;2022-12-07T04:27:40;4.60;99.90
2435;DHT22;1228;51.022;6.764;2022-12-07T04:30:06;4.60;99.90
2435;DHT22;1228;51.022;6.764;2022-12-07T04:32:32;4.60;99.90
2435;DHT22;1228;51.022;6.764;2022-12-07T04:34:58;4.60;99.90
2435;DHT22;1228;51.022;6.764;2022-12-07T04:37:24;4.60;99.90
2435;DHT22;1228;51.022;6.764;2022-12-07T04:39:50;4.60;99.90
2435;DHT22;1228;51.022;6.764;2022-12-07T04:42:16;4.50;99.90
2435;DHT22;1228;51.022;6.764;2022-12-07T04:44:41;4.50;99.90
2435;DHT22;1228;51.022;6.764;2022-12-07T04:47:07;4.50;99.90
2435;DHT22;1228;51.022;6.764;2022-12-07T04:49:33;4.40;99.90
2435;DHT22;1228;51.022;6.764;2022-12-07T04:51:58;4.40;99.90
2435;DHT22;1228;51.022;6.764;2022-12-07T04:54:24;4.40;99.90
2435;DHT22;1228;51.022;6.764;2022-12-07T04:56:50;4.40;99.90
2435;DHT22;1228;51.022;6.764;2022-12-07T04:59:16;4.40;99.90
2435;DHT22;1228;51.022;6.764;2022-12-07T05:01:42;4.40;99.90
2435;DHT22;1228;51.022;6.764;2022-12-07T05:04:08;4.40;99.90
2435;DHT22;1228;51.022;6.764;2022-12-07T05:06:34;4.50;99.90
2435;DHT22;1228;51.022;6.764;2022-12-07T05:09:00;4.50;99.90
2435;DHT22;1228;51.022;6.764;2022-12-07T05:11:26;4.50;99.90
2435;DHT22;1228;51.022;6.764;2022-12-07T05:14:27;4.50;99.90
2435;DHT22;1228;51.022;6.764;2022-12-07T05:16:52;4.50;99.90
2435;DHT22;1228;51.022;6.764;2022-12-07T05:19:19;4.60;99.90
2435;DHT22;1228;51.022;6.764;2022-12-07T05:21:45;4.60;99.90
2435;DHT22;1228;51.022;6.764;2022-12-07T05:24:12;4.60;99.90
2435;DHT22;1228;51.022;6.764;2022-12-07T05:26:38;4.60;99.90
2435;DHT22;1228;51.022;6.764;2022-12-07T05:29:04;4.60;99.90
2435;DHT22;1228;51.022;6.764;2022-12-07T05:31:29;4.60;99.90
2435;DHT22;1228;51.022;6.764;2022-12-07T05:33:55;4.60;99.90
2435;DHT22;1228;51.022;6.764;2022-12-07T05:36:21;4.60;99.90
2435;DHT22;1228;51.022;6.764;2022-12-07T05:38:46;4.60;99.90
2435;DHT22;1228;51.022;6.764;2022-12-07T05:41:14;4.60;99.90
2435;DHT22;1228;51.022;6.764;2022-12-07T05:43:59;4.60;99.90
2435;DHT22;1228;51.022;6.764;2022-12-07T05:46:25;4.60;99.90
2435;DHT22;1228;51.022;6.764;2022-12-07T05:48:51;4.50;99.90
2435;DHT22;1228;51.022;6.764;2022-12-07T05:51:16;4.50;99.90
2435;DHT22;1228;51.022;6.764;2022-12-07T05:53:42;4.50;99.90
2435;DHT22;1228;51.022;6.764;2022-12-07T05:56:08;4.40;99.90
2435;DHT22;1228;51.022;6.764;2022-12-07T05:58:33;4.30;99.90
2435;DHT22;1228;51.022;6.764;2022-12-07T06:01:17;4.20;99.90
2435;DHT22;1228;51.022;6.764;2022-12-07T06:03:43;4.20;99.90
2435;DHT22;1228;51.022;6.764;2022-12-07T06:06:10;4.10;99.90
2435;DHT22;1228;51.022;6.764;2022-12-07T06:08:35;4.20;99.90
2435;DHT22;1228;51.022;6.764;2022-12-07T06:11:01;4.20;99.90
2435;DHT22;1228;51.022;6.764;2022-12-07T06:13:45;4.20;99.90
2435;DHT22;1228;51.022;6.764;2022-12-07T06:16:11;4.20;99.90
2435;DHT22;1228;51.022;6.764;2022-12-07T06:18:36;4.20;99.90
2435;DHT22;1228;51.022;6.764;2022-12-07T06:21:02;4.20;99.90
2435;DHT22;1228;51.022;6.764;2022-12-07T06:23:27;4.20;99.90
2435;DHT22;1228;51.022;6.764;2022-12-07T06:25:53;4.20;99.90
2435;DHT22;1228;51.022;6.764;2022-12-07T06:28:18;4.20;99.90
2435;DHT22;1228;51.022;6.764;2022-12-07T06:30:44;4.20;99.90
2435;DHT22;1228;51.022;6.764;2022-12-07T06:33:09;4.30;99.90
2435;DHT22;1228;51.022;6.764;2022-12-07T06:35:35;4.20;99.90
2435;DHT22;1228;51.022;6.764;2022-12-07T06:38:01;4.20;99.90
2435;DHT22;1228;51.022;6.764;2022-12-07T06:40:26;4.20;99.90
2435;DHT22;1228;51.022;6.764;2022-12-07T06:42:52;4.20;99.90
2435;DHT22;1228;51.022;6.764;2022-12-07T06:45:17;4.30;99.90
2435;DHT22;1228;51.022;6.764;2022-12-07T06:47:43;4.30;99.90
2435;DHT22;1228;51.022;6.764;2022-12-07T06:50:09;4.30;99.90
2435;DHT22;1228;51.022;6.764;2022-12-07T06:52:35;4.30;99.90
2435;DHT22;1228;51.022;6.764;2022-12-07T06:55:00;4.40;99.90
2435;DHT22;1228;51.022;6.764;2022-12-07T06:57:26;4.30;99.90
2435;DHT22;1228;51.022;6.764;2022-12-07T06:59:52;4.30;99.90
2435;DHT22;1228;51.022;6.764;2022-12-07T07:02:17;4.40;99.90
2435;DHT22;1228;51.022;6.764;2022-12-07T07:04:43;4.40;99.90
2435;DHT22;1228;51.022;6.764;2022-12-07T07:07:09;4.40;99.90
2435;DHT22;1228;51.022;6.764;2022-12-07T07:09:34;4.40;99.90
2435;DHT22;1228;51.022;6.764;2022-12-07T07:12:00;4.40;99.90
2435;DHT22;1228;51.022;6.764;2022-12-07T07:14:25;4.40;99.90
2435;DHT22;1228;51.022;6.764;2022-12-07T07:16:51;4.40;99.90
2435;DHT22;1228;51.022;6.764;2022-12-07T07:19:17;4.30;99.90
2435;DHT22;1228;51.022;6.764;2022-12-07T07:21:42;4.30;99.90
2435;DHT22;1228;51.022;6.764;2022-12-07T07:24:08;4.30;99.90
2435;DHT22;1228;51.022;6.764;2022-12-07T07:26:33;4.20;99.90
2435;DHT22;1228;51.022;6.764;2022-12-07T07:28:59;4.20;99.90
2435;DHT22;1228;51.022;6.764;2022-12-07T07:31:24;4.10;99.90
2435;DHT22;1228;51.022;6.764;2022-12-07T07:33:50;4.10;99.90
2435;DHT22;1228;51.022;6.764;2022-12-07T07:36:16;4.10;99.90
2435;DHT22;1228;51.022;6.764;2022-12-07T07:38:42;4.10;99.90
2435;DHT22;1228;51.022;6.764;2022-12-07T07:41:08;4.20;99.90
2435;DHT22;1228;51.022;6.764;2022-12-07T07:43:33;4.20;99.90
2435;DHT22;1228;51.022;6.764;2022-12-07T07:45:59;4.20;99.90
2435;DHT22;1228;51.022;6.764;2022-12-07T07:48:24;4.30;99.90
2435;DHT22;1228;51.022;6.764;2022-12-07T07:50:51;4.30;99.90
2435;DHT22;1228;51.022;6.764;2022-12-07T07:53:16;4.30;99.90
2435;DHT22;1228;51.022;6.764;2022-12-07T07:55:50;4.30;99.90
2435;DHT22;1228;51.022;6.764;2022-12-07T07:58:16;4.20;99.90
2435;DHT22;1228;51.022;6.764;2022-12-07T08:00:41;4.30;99.90
2435;DHT22;1228;51.022;6.764;2022-12-07T08:03:07;4.40;99.90
2435;DHT22;1228;51.022;6.764;2022-12-07T08:05:32;4.40;99.90
2435;DHT22;1228;51.022;6.764;2022-12-07T08:07:58;4.40;99.90
2435;DHT22;1228;51.022;6.764;2022-12-07T08:10:24;4.40;99.90
2435;DHT22;1228;51.022;6.764;2022-12-07T08:12:50;4.40;99.90
2435;DHT22;1228;51.022;6.764;2022-12-07T08:15:37;4.40;99.90
2435;DHT22;1228;51.022;6.764;2022-12-07T08:18:03;4.50;99.90
2435;DHT22;1228;51.022;6.764;2022-12-07T08:20:30;4.50;99.90
2435;DHT22;1228;51.022;6.764;2022-12-07T08:22:57;4.50;99.90
2435;DHT22;1228;51.022;6.764;2022-12-07T08:25:22;4.60;99.90
2435;DHT22;1228;51.022;6.764;2022-12-07T08:27:49;4.60;99.90
2435;DHT22;1228;51.022;6.764;2022-12-07T08:30:15;4.50;99.90
2435;DHT22;1228;51.022;6.764;2022-12-07T08:32:41;4.60;99.90
2435;DHT22;1228;51.022;6.764;2022-12-07T08:35:07;4.60;99.90
2435;DHT22;1228;51.022;6.764;2022-12-07T08:37:33;4.70;99.90
2435;DHT22;1228;51.022;6.764;2022-12-07T08:39:58;4.70;99.90
2435;DHT22;1228;51.022;6.764;2022-12-07T08:42:24;4.80;99.90
2435;DHT22;1228;51.022;6.764;2022-12-07T08:44:55;4.80;99.90
2435;DHT22;1228;51.022;6.764;2022-12-07T08:47:21;4.90;99.90
2435;DHT22;1228;51.022;6.764;2022-12-07T08:49:47;4.90;99.90
2435;DHT22;1228;51.022;6.764;2022-12-07T08:52:14;4.90;99.90
2435;DHT22;1228;51.022;6.764;2022-12-07T08:54:41;4.90;99.90
2435;DHT22;1228;51.022;6.764;2022-12-07T08:57:07;4.90;99.90
2435;DHT22;1228;51.022;6.764;2022-12-07T08:59:34;5.00;99.90
2435;DHT22;1228;51.022;6.764;2022-12-07T09:02:01;5.20;99.90
2435;DHT22;1228;51.022;6.764;2022-12-07T09:04:26;5.40;99.90
2435;DHT22;1228;51.022;6.764;2022-12-07T09:06:54;5.60;99.90
2435;DHT22;1228;51.022;6.764;2022-12-07T09:09:20;5.70;99.90
2435;DHT22;1228;51.022;6.764;2022-12-07T09:11:45;5.70;99.90
2435;DHT22;1228;51.022;6.764;2022-12-07T09:14:11;5.70;99.90
2435;DHT22;1228;51.022;6.764;2022-12-07T09:16:38;5.60;99.90
2435;DHT22;1228;51.022;6.764;2022-12-07T09:19:03;5.50;99.90
2435;DHT22;1228;51.022;6.764;2022-12-07T09:21:29;5.50;99.90
2435;DHT22;1228;51.022;6.764;2022-12-07T09:23:55;5.40;99.90
2435;DHT22;1228;51.022;6.764;2022-12-07T09:26:20;5.40;99.90
2435;DHT22;1228;51.022;6.764;2022-12-07T09:28:46;5.40;99.90
2435;DHT22;1228;51.022;6.764;2022-12-07T09:31:11;5.40;99.90
2435;DHT22;1228;51.022;6.764;2022-12-07T09:33:37;5.40;99.90
2435;DHT22;1228;51.022;6.764;2022-12-07T09:36:04;5.50;99.90
2435;DHT22;1228;51.022;6.764;2022-12-07T09:38:30;5.50;99.90
2435;DHT22;1228;51.022;6.764;2022-12-07T09:41:04;5.70;99.90
2435;DHT22;1228;51.022;6.764;2022-12-07T09:43:30;5.80;99.90
2435;DHT22;1228;51.022;6.764;2022-12-07T09:45:56;6.40;99.90
2435;DHT22;1228;51.022;6.764;2022-12-07T09:48:36;6.40;99.90
2435;DHT22;1228;51.022;6.764;2022-12-07T09:51:20;6.60;99.90
2435;DHT22;1228;51.022;6.764;2022-12-07T09:53:48;6.70;99.90
2435;DHT22;1228;51.022;6.764;2022-12-07T09:56:15;6.70;99.90
2435;DHT22;1228;51.022;6.764;2022-12-07T09:58:42;6.70;99.90
2435;DHT22;1228;51.022;6.764;2022-12-07T10:03:39;6.70;99.90
2435;DHT22;1228;51.022;6.764;2022-12-07T10:06:06;6.60;99.90
2435;DHT22;1228;51.022;6.764;2022-12-07T10:08:32;6.50;99.90
2435;DHT22;1228;51.022;6.764;2022-12-07T10:10:59;6.50;99.90
2435;DHT22;1228;51.022;6.764;2022-12-07T10:13:37;6.50;99.90
2435;DHT22;1228;51.022;6.764;2022-12-07T10:16:04;6.50;99.90
2435;DHT22;1228;51.022;6.764;2022-12-07T10:18:33;6.40;99.90
2435;DHT22;1228;51.022;6.764;2022-12-07T10:23:30;6.50;99.90
2435;DHT22;1228;51.022;6.764;2022-12-07T10:25:56;6.50;99.90
2435;DHT22;1228;51.022;6.764;2022-12-07T10:28:21;6.60;99.90
2435;DHT22;1228;51.022;6.764;2022-12-07T10:30:56;6.90;99.90
2435;DHT22;1228;51.022;6.764;2022-12-07T10:36:16;7.40;99.90
2435;DHT22;1228;51.022;6.764;2022-12-07T10:38:59;7.50;99.90
2435;DHT22;1228;51.022;6.764;2022-12-07T10:41:25;7.70;99.90
2435;DHT22;1228;51.022;6.764;2022-12-07T10:43:53;7.70;99.90
2435;DHT22;1228;51.022;6.764;2022-12-07T10:55:20;7.20;99.90
2435;DHT22;1228;51.022;6.764;2022-12-07T11:01:03;7.10;99.90
2435;DHT22;1228;51.022;6.764;2022-12-07T11:14:56;7.00;99.90
2435;DHT22;1228;51.022;6.764;2022-12-07T11:17:26;6.80;99.90
2435;DHT22;1228;51.022;6.764;2022-12-07T11:26:09;6.50;99.90
2435;DHT22;1228;51.022;6.764;2022-12-07T11:31:28;6.40;99.90
2435;DHT22;1228;51.022;6.764;2022-12-07T11:36:41;6.20;99.90
2435;DHT22;1228;51.022;6.764;2022-12-07T11:39:35;6.10;99.90
2435;DHT22;1228;51.022;6.764;2022-12-07T11:42:18;6.10;99.90
2435;DHT22;1228;51.022;6.764;2022-12-07T11:52:52;6.00;99.90
2435;DHT22;1228;51.022;6.764;2022-12-07T11:55:32;6.00;99.90
2435;DHT22;1228;51.022;6.764;2022-12-07T11:58:19;5.90;99.90
2435;DHT22;1228;51.022;6.764;2022-12-07T12:00:51;5.90;99.90
2435;DHT22;1228;51.022;6.764;2022-12-07T12:03:30;5.90;99.90
2435;DHT22;1228;51.022;6.764;2022-12-07T12:05:59;5.90;99.90
2435;DHT22;1228;51.022;6.764;2022-12-07T12:08:31;5.90;99.90
2435;DHT22;1228;51.022;6.764;2022-12-07T12:14:21;5.90;99.90
2435;DHT22;1228;51.022;6.764;2022-12-07T12:22:34;5.70;99.90
2435;DHT22;1228;51.022;6.764;2022-12-07T12:25:05;5.60;99.90
2435;DHT22;1228;51.022;6.764;2022-12-07T12:27:33;5.60;99.90
2435;DHT22;1228;51.022;6.764;2022-12-07T12:30:02;5.60;99.90
2435;DHT22;1228;51.022;6.764;2022-12-07T12:32:42;5.60;99.90
2435;DHT22;1228;51.022;6.764;2022-12-07T12:35:35;5.60;99.90
2435;DHT22;1228;51.022;6.764;2022-12-07T12:38:30;5.60;99.90
2435;DHT22;1228;51.022;6.764;2022-12-07T12:40:57;5.60;99.90
2435;DHT22;1228;51.022;6.764;2022-12-07T12:57:27;5.50;99.90
2435;DHT22;1228;51.022;6.764;2022-12-07T13:02:31;5.70;99.90
2435;DHT22;1228;51.022;6.764;2022-12-07T13:08:01;6.00;99.90
2435;DHT22;1228;51.022;6.764;2022-12-07T13:15:37;6.50;99.90
2435;DHT22;1228;51.022;6.764;2022-12-07T13:20:57;6.80;99.90
2435;DHT22;1228;51.022;6.764;2022-12-07T13:31:47;7.00;99.90
2435;DHT22;1228;51.022;6.764;2022-12-07T13:34:33;7.00;99.90
2435;DHT22;1228;51.022;6.764;2022-12-07T13:37:02;7.00;99.90
2435;DHT22;1228;51.022;6.764;2022-12-07T13:39:29;7.00;99.90
2435;DHT22;1228;51.022;6.764;2022-12-07T13:41:57;7.10;99.90
2435;DHT22;1228;51.022;6.764;2022-12-07T13:44:25;7.10;99.90
2435;DHT22;1228;51.022;6.764;2022-12-07T13:47:04;7.00;99.90
2435;DHT22;1228;51.022;6.764;2022-12-07T13:49:33;7.10;99.90
2435;DHT22;1228;51.022;6.764;2022-12-07T13:52:17;7.10;99.90
2435;DHT22;1228;51.022;6.764;2022-12-07T13:54:46;7.10;99.90
2435;DHT22;1228;51.022;6.764;2022-12-07T13:57:13;7.10;99.90
2435;DHT22;1228;51.022;6.764;2022-12-07T13:59:38;7.10;99.90
2435;DHT22;1228;51.022;6.764;2022-12-07T14:02:19;7.00;99.90
2435;DHT22;1228;51.022;6.764;2022-12-07T14:04:45;6.90;99.90
2435;DHT22;1228;51.022;6.764;2022-12-07T14:07:23;6.90;99.90
2435;DHT22;1228;51.022;6.764;2022-12-07T14:10:05;6.90;99.90
2435;DHT22;1228;51.022;6.764;2022-12-07T14:12:32;6.90;99.90
2435;DHT22;1228;51.022;6.764;2022-12-07T14:15:02;6.80;99.90
2435;DHT22;1228;51.022;6.764;2022-12-07T14:17:28;6.80;99.90
2435;DHT22;1228;51.022;6.764;2022-12-07T14:20:02;6.80;99.90
2435;DHT22;1228;51.022;6.764;2022-12-07T14:22:33;6.70;99.90
2435;DHT22;1228;51.022;6.764;2022-12-07T14:27:49;6.70;99.90
2435;DHT22;1228;51.022;6.764;2022-12-07T14:30:16;6.70;99.90
2435;DHT22;1228;51.022;6.764;2022-12-07T14:32:41;6.60;99.90
2435;DHT22;1228;51.022;6.764;2022-12-07T14:35:11;6.60;99.90
2435;DHT22;1228;51.022;6.764;2022-12-07T14:37:39;6.60;99.90
2435;DHT22;1228;51.022;6.764;2022-12-07T14:40:05;6.50;99.90
2435;DHT22;1228;51.022;6.764;2022-12-07T14:42:33;6.50;99.90
2435;DHT22;1228;51.022;6.764;2022-12-07T14:44:59;6.40;99.90
2435;DHT22;1228;51.022;6.764;2022-12-07T14:47:26;6.40;99.90
2435;DHT22;1228;51.022;6.764;2022-12-07T14:49:52;6.30;99.90
2435;DHT22;1228;51.022;6.764;2022-12-07T14:52:23;6.20;99.90
2435;DHT22;1228;51.022;6.764;2022-12-07T14:54:50;6.20;99.90
2435;DHT22;1228;51.022;6.764;2022-12-07T14:57:16;6.00;99.90
2435;DHT22;1228;51.022;6.764;2022-12-07T14:59:41;5.90;99.90
2435;DHT22;1228;51.022;6.764;2022-12-07T15:02:10;5.70;99.90
2435;DHT22;1228;51.022;6.764;2022-12-07T15:04:36;5.60;99.90
2435;DHT22;1228;51.022;6.764;2022-12-07T15:07:04;5.50;99.90
2435;DHT22;1228;51.022;6.764;2022-12-07T15:09:30;5.50;99.90
2435;DHT22;1228;51.022;6.764;2022-12-07T15:11:55;5.50;99.90
2435;DHT22;1228;51.022;6.764;2022-12-07T15:14:21;5.40;99.90
2435;DHT22;1228;51.022;6.764;2022-12-07T15:16:46;5.40;99.90
2435;DHT22;1228;51.022;6.764;2022-12-07T15:19:14;5.40;99.90
2435;DHT22;1228;51.022;6.764;2022-12-07T15:21:41;5.30;99.90
2435;DHT22;1228;51.022;6.764;2022-12-07T15:24:09;5.20;99.90
2435;DHT22;1228;51.022;6.764;2022-12-07T15:26:35;5.20;99.90
2435;DHT22;1228;51.022;6.764;2022-12-07T15:29:00;5.10;99.90
2435;DHT22;1228;51.022;6.764;2022-12-07T15:31:26;5.00;99.90
2435;DHT22;1228;51.022;6.764;2022-12-07T15:33:51;4.90;99.90
2435;DHT22;1228;51.022;6.764;2022-12-07T15:36:26;4.80;99.90
2435;DHT22;1228;51.022;6.764;2022-12-07T15:38:52;4.70;99.90
2435;DHT22;1228;51.022;6.764;2022-12-07T15:41:18;4.60;99.90
2435;DHT22;1228;51.022;6.764;2022-12-07T15:43:44;4.50;99.90
2435;DHT22;1228;51.022;6.764;2022-12-07T15:46:32;4.50;99.90
2435;DHT22;1228;51.022;6.764;2022-12-07T15:48:58;4.40;99.90
2435;DHT22;1228;51.022;6.764;2022-12-07T15:51:24;4.30;99.90
2435;DHT22;1228;51.022;6.764;2022-12-07T15:53:50;4.30;99.90
2435;DHT22;1228;51.022;6.764;2022-12-07T15:56:16;4.30;99.90
2435;DHT22;1228;51.022;6.764;2022-12-07T15:58:41;4.20;99.90
2435;DHT22;1228;51.022;6.764;2022-12-07T16:01:18;4.20;99.90
2435;DHT22;1228;51.022;6.764;2022-12-07T16:03:44;4.20;99.90
2435;DHT22;1228;51.022;6.764;2022-12-07T16:06:10;4.10;99.90
2435;DHT22;1228;51.022;6.764;2022-12-07T16:08:36;4.10;99.90
2435;DHT22;1228;51.022;6.764;2022-12-07T16:11:08;4.10;99.90
2435;DHT22;1228;51.022;6.764;2022-12-07T16:13:34;4.10;99.90
2435;DHT22;1228;51.022;6.764;2022-12-07T16:16:08;4.10;99.90
2435;DHT22;1228;51.022;6.764;2022-12-07T16:18:35;4.10;99.90
2435;DHT22;1228;51.022;6.764;2022-12-07T16:21:00;4.20;99.90
2435;DHT22;1228;51.022;6.764;2022-12-07T16:23:26;4.20;99.90
2435;DHT22;1228;51.022;6.764;2022-12-07T16:25:52;4.20;99.90
2435;DHT22;1228;51.022;6.764;2022-12-07T16:28:18;4.20;99.90
2435;DHT22;1228;51.022;6.764;2022-12-07T16:30:43;4.30;99.90
2435;DHT22;1228;51.022;6.764;2022-12-07T16:33:10;4.30;99.90
2435;DHT22;1228;51.022;6.764;2022-12-07T16:35:38;4.30;99.90
2435;DHT22;1228;51.022;6.764;2022-12-07T16:38:06;4.30;99.90
2435;DHT22;1228;51.022;6.764;2022-12-07T16:40:32;4.40;99.90
2435;DHT22;1228;51.022;6.764;2022-12-07T16:42:58;4.40;99.90
2435;DHT22;1228;51.022;6.764;2022-12-07T16:45:23;4.40;99.90
2435;DHT22;1228;51.022;6.764;2022-12-07T16:47:49;4.40;99.90
2435;DHT22;1228;51.022;6.764;2022-12-07T16:50:14;4.40;99.90
2435;DHT22;1228;51.022;6.764;2022-12-07T16:52:40;4.40;99.90
2435;DHT22;1228;51.022;6.764;2022-12-07T16:55:06;4.40;99.90
2435;DHT22;1228;51.022;6.764;2022-12-07T16:57:32;4.50;99.90
2435;DHT22;1228;51.022;6.764;2022-12-07T16:59:57;4.50;99.90
2435;DHT22;1228;51.022;6.764;2022-12-07T17:02:23;4.50;99.90
2435;DHT22;1228;51.022;6.764;2022-12-07T17:04:48;4.60;99.90
2435;DHT22;1228;51.022;6.764;2022-12-07T17:07:14;4.60;99.90
2435;DHT22;1228;51.022;6.764;2022-12-07T17:09:40;4.60;99.90
2435;DHT22;1228;51.022;6.764;2022-12-07T17:12:05;4.60;99.90
2435;DHT22;1228;51.022;6.764;2022-12-07T17:14:32;4.70;99.90
2435;DHT22;1228;51.022;6.764;2022-12-07T17:17:16;4.70;99.90
2435;DHT22;1228;51.022;6.764;2022-12-07T17:19:41;4.70;99.90
2435;DHT22;1228;51.022;6.764;2022-12-07T17:22:07;4.70;99.90
2435;DHT22;1228;51.022;6.764;2022-12-07T17:24:33;4.80;99.90
2435;DHT22;1228;51.022;6.764;2022-12-07T17:26:59;4.70;99.90
2435;DHT22;1228;51.022;6.764;2022-12-07T17:29:25;4.80;99.90
2435;DHT22;1228;51.022;6.764;2022-12-07T17:31:50;4.70;99.90
2435;DHT22;1228;51.022;6.764;2022-12-07T17:34:16;4.80;99.90
2435;DHT22;1228;51.022;6.764;2022-12-07T17:36:42;4.70;99.90
2435;DHT22;1228;51.022;6.764;2022-12-07T17:39:11;4.80;99.90
2435;DHT22;1228;51.022;6.764;2022-12-07T17:41:39;4.70;99.90
2435;DHT22;1228;51.022;6.764;2022-12-07T17:44:23;4.70;99.90
2435;DHT22;1228;51.022;6.764;2022-12-07T17:46:51;4.70;99.90
2435;DHT22;1228;51.022;6.764;2022-12-07T17:49:22;4.70;99.90
2435;DHT22;1228;51.022;6.764;2022-12-07T17:51:48;4.70;99.90
2435;DHT22;1228;51.022;6.764;2022-12-07T17:54:32;4.80;99.90
2435;DHT22;1228;51.022;6.764;2022-12-07T17:56:58;4.80;99.90
2435;DHT22;1228;51.022;6.764;2022-12-07T17:59:24;4.80;99.90
2435;DHT22;1228;51.022;6.764;2022-12-07T18:01:50;4.80;99.90
2435;DHT22;1228;51.022;6.764;2022-12-07T18:04:15;4.80;99.90
2435;DHT22;1228;51.022;6.764;2022-12-07T18:06:41;4.80;99.90
2435;DHT22;1228;51.022;6.764;2022-12-07T18:09:07;4.80;99.90
2435;DHT22;1228;51.022;6.764;2022-12-07T18:11:34;4.80;99.90
2435;DHT22;1228;51.022;6.764;2022-12-07T18:13:59;4.90;99.90
2435;DHT22;1228;51.022;6.764;2022-12-07T18:16:26;4.80;99.90
2435;DHT22;1228;51.022;6.764;2022-12-07T18:18:53;4.80;99.90
2435;DHT22;1228;51.022;6.764;2022-12-07T18:21:21;4.80;99.90
2435;DHT22;1228;51.022;6.764;2022-12-07T18:23:50;4.80;99.90
2435;DHT22;1228;51.022;6.764;2022-12-07T18:26:17;4.80;99.90
2435;DHT22;1228;51.022;6.764;2022-12-07T18:28:44;4.70;99.90
2435;DHT22;1228;51.022;6.764;2022-12-07T18:31:09;4.70;99.90
2435;DHT22;1228;51.022;6.764;2022-12-07T18:33:37;4.70;99.90
2435;DHT22;1228;51.022;6.764;2022-12-07T18:36:03;4.70;99.90
2435;DHT22;1228;51.022;6.764;2022-12-07T18:38:29;4.70;99.90
2435;DHT22;1228;51.022;6.764;2022-12-07T18:40:55;4.70;99.90
2435;DHT22;1228;51.022;6.764;2022-12-07T18:43:21;4.60;99.90
2435;DHT22;1228;51.022;6.764;2022-12-07T18:45:49;4.70;99.90
2435;DHT22;1228;51.022;6.764;2022-12-07T18:48:16;4.60;99.90